Stephen R Warden — WDC6523 — position and weather

sailwx.info

Track history (hours):
 
Tides and Currents Weather Stations Pressure Air Temp Water Temp Dewpoint Dewpoint Depression Visibility Wind Speed Wind Dir Waves Ship Positions

Stephen R Warden

Owner: American Commercial Lines LLC, Jeffersonvile, IN. More information available from US FCC via Universal Licensing System and Coast Guard Vessel Documentation Center.

Last reported at 2015-May-29 13:31 UTC. Time now 2015-May-29 14:26 UTC.
Position N 29°57' W 090°00'.

Length 37 m; draft 3 m.

Type: Towing. MMSI: 367057460.

Date/timePositionNaut miles runAvg speedWind from/ knotsBaromVisibWave heightAir tempDewpointWater temp
2015-May-29 13:31N 29°57' W 090°00'5 3.9
2015-May-29 12:13N 29°55' W 089°55'3 2.4
2015-May-29 11:06N 29°53' W 089°57'3 0.2
2015-May-28 17:20N 29°55' W 089°55'5 6.2
2015-May-28 16:33N 29°57' W 090°01'6 4.6
2015-May-28 15:20N 29°55' W 090°07'32 1.8
2015-May-27 21:23N 30°01' W 090°43'3 3.4
2015-May-27 20:33N 30°03' W 090°40'34 1.1
2015-May-26 13:23N 29°57' W 090°01'6 6.7
2015-May-26 12:30N 29°55' W 090°08'2 1.1
2015-May-26 10:24N 29°57' W 090°08'3 3.2
2015-May-26 09:26N 29°55' W 090°06'3 3.5
2015-May-26 08:33N 29°57' W 090°04'3 3.1
2015-May-26 07:33N 29°57' W 090°00'0 0.1
2015-May-26 06:32N 29°57' W 090°00'7 3.2
2015-May-26 04:17N 29°49' W 089°60'  
2015-May-22 08:07N 29°57' W 090°09'1 0.2
2015-May-22 05:17N 29°57' W 090°09'3 4.3
2015-May-22 04:33N 29°55' W 090°06'4 4.4
2015-May-22 03:33N 29°57' W 090°02'3 3.0
2015-May-22 02:33N 29°56' W 089°59'2 1.6
2015-May-22 01:32N 29°57' W 090°01'3 2.8
2015-May-22 00:33N 29°55' W 090°04'6 2.6
2015-May-21 22:11N 29°56' W 090°11'  
Track history (hours):
 
Tides and Currents Weather Stations Pressure Air Temp Water Temp Dewpoint Dewpoint Depression Visibility Wind Speed Wind Dir Waves Ship Positions

Stephen R Warden

Owner: American Commercial Lines LLC, Jeffersonvile, IN. More information available from US FCC via Universal Licensing System and Coast Guard Vessel Documentation Center.

Last reported at 2015-May-29 13:31 UTC. Time now 2015-May-29 14:26 UTC.
Position N 29°57' W 090°00'.

Length 37 m; draft 3 m.

Type: Towing. MMSI: 367057460.

Date/timePositionNaut miles runAvg speedWind from/ knotsBaromVisibWave heightAir tempDewpointWater temp
2015-May-29 13:31N 29°57' W 090°00'5 3.9
2015-May-29 12:13N 29°55' W 089°55'3 2.4
2015-May-29 11:06N 29°53' W 089°57'3 0.2
2015-May-28 17:20N 29°55' W 089°55'5 6.2
2015-May-28 16:33N 29°57' W 090°01'6 4.6
2015-May-28 15:20N 29°55' W 090°07'32 1.8
2015-May-27 21:23N 30°01' W 090°43'3 3.4
2015-May-27 20:33N 30°03' W 090°40'34 1.1
2015-May-26 13:23N 29°57' W 090°01'6 6.7
2015-May-26 12:30N 29°55' W 090°08'2 1.1
2015-May-26 10:24N 29°57' W 090°08'3 3.2
2015-May-26 09:26N 29°55' W 090°06'3 3.5
2015-May-26 08:33N 29°57' W 090°04'3 3.1
2015-May-26 07:33N 29°57' W 090°00'0 0.1
2015-May-26 06:32N 29°57' W 090°00'7 3.2
2015-May-26 04:17N 29°49' W 089°60'  
2015-May-22 08:07N 29°57' W 090°09'1 0.2
2015-May-22 05:17N 29°57' W 090°09'3 4.3
2015-May-22 04:33N 29°55' W 090°06'4 4.4
2015-May-22 03:33N 29°57' W 090°02'3 3.0
2015-May-22 02:33N 29°56' W 089°59'2 1.6
2015-May-22 01:32N 29°57' W 090°01'3 2.8
2015-May-22 00:33N 29°55' W 090°04'6 2.6
2015-May-21 22:11N 29°56' W 090°11'  

Dump ship's entire track history